createdAt,value
2023-04-19T00:00:57.873Z,88540.00
2023-04-19T00:01:57.954Z,88542.00
2023-04-19T00:02:58.157Z,88542.00
2023-04-19T00:03:58.197Z,88542.00
2023-04-19T00:04:58.199Z,88540.00
2023-04-19T00:05:58.149Z,88540.00
2023-04-19T00:06:58.291Z,88542.00
2023-04-19T00:07:58.285Z,88540.00
2023-04-19T00:08:58.355Z,88540.00
2023-04-19T00:09:58.410Z,88538.00
2023-04-19T00:10:58.489Z,88536.00
2023-04-19T00:11:58.543Z,88538.00
2023-04-19T00:12:58.603Z,88536.00
2023-04-19T00:13:58.691Z,88534.00
2023-04-19T00:14:58.761Z,88534.00
2023-04-19T00:15:58.840Z,88536.00
2023-04-19T00:16:58.966Z,88534.00
2023-04-19T00:17:59.024Z,88534.00
2023-04-19T00:18:59.018Z,88534.00
2023-04-19T00:19:59.088Z,88532.00
2023-04-19T00:20:59.152Z,88532.00
2023-04-19T00:21:59.238Z,88534.00
2023-04-19T00:22:59.344Z,88534.00
2023-04-19T00:23:59.342Z,88532.00
2023-04-19T00:24:59.401Z,88532.00
2023-04-19T00:25:59.496Z,88530.00
2023-04-19T00:26:59.549Z,88532.00
2023-04-19T00:27:59.632Z,88530.00
2023-04-19T00:28:59.702Z,88528.00
2023-04-19T00:29:59.754Z,88530.00
2023-04-19T00:30:59.881Z,88530.00
2023-04-19T00:31:59.917Z,88530.00
2023-04-19T00:33:00.030Z,88528.00
2023-04-19T00:34:00.049Z,88530.00
2023-04-19T00:35:00.125Z,88528.00
2023-04-19T00:36:00.176Z,88528.00
2023-04-19T00:37:00.270Z,88528.00
2023-04-19T00:38:00.321Z,88524.00
2023-04-19T00:39:00.388Z,88522.00
2023-04-19T00:40:00.399Z,88520.00
2023-04-19T00:41:00.397Z,88520.00
2023-04-19T00:42:00.419Z,88522.00
2023-04-19T00:43:01.179Z,88518.00
2023-04-19T00:44:00.420Z,88522.00
2023-04-19T00:45:00.433Z,88520.00
2023-04-19T00:46:00.481Z,88520.00
2023-04-19T00:47:00.462Z,88520.00
2023-04-19T00:48:00.514Z,88520.00
2023-04-19T00:49:00.485Z,88518.00
2023-04-19T00:50:00.575Z,88518.00
2023-04-19T00:51:00.568Z,88516.00
2023-04-19T00:52:00.636Z,88518.00
2023-04-19T00:53:00.699Z,88516.00
2023-04-19T00:54:00.815Z,88518.00
2023-04-19T00:55:00.855Z,88518.00
2023-04-19T00:56:00.934Z,88518.00
2023-04-19T00:57:00.997Z,88518.00
2023-04-19T00:58:01.105Z,88518.00
2023-04-19T00:59:01.167Z,88516.00
2023-04-19T01:00:01.233Z,88516.00
2023-04-19T01:01:01.421Z,88515.00
2023-04-19T01:02:01.758Z,88516.00
2023-04-19T01:03:01.595Z,88516.00
2023-04-19T01:04:01.728Z,88516.00
2023-04-19T01:05:01.579Z,88516.00
2023-04-19T01:06:01.684Z,88516.00
2023-04-19T01:07:01.762Z,88516.00
2023-04-19T01:08:01.931Z,88513.00
2023-04-19T01:09:01.943Z,88515.00
2023-04-19T01:10:02.088Z,88513.00
2023-04-19T01:11:02.031Z,88513.00
2023-04-19T01:12:02.151Z,88515.00
2023-04-19T01:13:02.179Z,88515.00
2023-04-19T01:14:02.311Z,88516.00
2023-04-19T01:15:02.340Z,88513.00
2023-04-19T01:16:02.443Z,88515.00
2023-04-19T01:17:02.472Z,88513.00
2023-04-19T01:18:02.594Z,88513.00
2023-04-19T01:19:02.655Z,88513.00
2023-04-19T01:20:02.692Z,88511.00
2023-04-19T01:21:02.876Z,88511.00
2023-04-19T01:22:02.828Z,88509.00
2023-04-19T01:23:02.928Z,88511.00
2023-04-19T01:24:03.028Z,88509.00
2023-04-19T01:25:03.070Z,88505.00
2023-04-19T01:26:03.145Z,88507.00
2023-04-19T01:27:03.219Z,88505.00
2023-04-19T01:28:03.288Z,88505.00
2023-04-19T01:29:03.366Z,88505.00
2023-04-19T01:30:03.447Z,88501.00
2023-04-19T01:31:03.552Z,88501.00
2023-04-19T01:32:03.582Z,88505.00
2023-04-19T01:33:03.722Z,88501.00
2023-04-19T01:34:03.737Z,88503.00
2023-04-19T01:35:03.737Z,88501.00
2023-04-19T01:36:03.743Z,88501.00
2023-04-19T01:37:03.776Z,88499.00
2023-04-19T01:38:03.808Z,88497.00
2023-04-19T01:39:03.784Z,88501.00
2023-04-19T01:40:03.812Z,88499.00
2023-04-19T01:41:03.800Z,88493.00
2023-04-19T01:42:03.811Z,88495.00
2023-04-19T01:43:03.820Z,88495.00
2023-04-19T01:44:03.853Z,88495.00
2023-04-19T01:45:03.901Z,88493.00
2023-04-19T01:46:03.962Z,88491.00
2023-04-19T01:47:04.162Z,88491.00
2023-04-19T01:48:04.182Z,88491.00
2023-04-19T01:49:04.206Z,88489.00
2023-04-19T01:50:04.267Z,88491.00
2023-04-19T01:51:04.348Z,88489.00
2023-04-19T01:52:04.458Z,88489.00
2023-04-19T01:53:04.482Z,88487.00
2023-04-19T01:54:04.605Z,88487.00
2023-04-19T01:55:04.702Z,88487.00
2023-04-19T01:56:04.767Z,88487.00
2023-04-19T01:57:04.806Z,88485.00
2023-04-19T01:58:04.874Z,88485.00
2023-04-19T01:59:04.940Z,88485.00
2023-04-19T02:00:05.038Z,88485.00
2023-04-19T02:01:05.131Z,88483.00
2023-04-19T02:02:05.223Z,88485.00
2023-04-19T02:03:05.350Z,88481.00
2023-04-19T02:04:05.404Z,88481.00
2023-04-19T02:05:05.359Z,88481.00
2023-04-19T02:06:05.454Z,88477.00
2023-04-19T02:07:05.537Z,88479.00
2023-04-19T02:08:05.578Z,88479.00
2023-04-19T02:09:05.684Z,88477.00
2023-04-19T02:10:05.778Z,88481.00
2023-04-19T02:11:05.798Z,88479.00
2023-04-19T02:12:05.879Z,88479.00
2023-04-19T02:13:05.937Z,88479.00
2023-04-19T02:14:06.019Z,88477.00
2023-04-19T02:15:06.092Z,88477.00
2023-04-19T02:16:06.259Z,88477.00
2023-04-19T02:17:06.221Z,88477.00
2023-04-19T02:18:06.356Z,88470.00
2023-04-19T02:19:06.396Z,88470.00
2023-04-19T02:20:06.477Z,88468.00
2023-04-19T02:21:06.540Z,88470.00
2023-04-19T02:22:06.616Z,88470.00
2023-04-19T02:23:06.680Z,88470.00
2023-04-19T02:24:06.753Z,88470.00
2023-04-19T02:25:06.820Z,88468.00
2023-04-19T02:26:06.890Z,88468.00
2023-04-19T02:27:07.000Z,88470.00
2023-04-19T02:28:07.102Z,88470.00
2023-04-19T02:29:07.239Z,88468.00
2023-04-19T02:30:07.192Z,88464.00
2023-04-19T02:31:07.106Z,88464.00
2023-04-19T02:32:07.171Z,88466.00
2023-04-19T02:33:07.172Z,88468.00
2023-04-19T02:34:07.149Z,88462.00
2023-04-19T02:35:07.161Z,88460.00
2023-04-19T02:36:07.155Z,88458.00
2023-04-19T02:37:07.166Z,88458.00
2023-04-19T02:38:07.231Z,88458.00
2023-04-19T02:39:07.300Z,88458.00
2023-04-19T02:40:07.426Z,88458.00
2023-04-19T02:41:07.462Z,88462.00
2023-04-19T02:42:07.535Z,88460.00
2023-04-19T02:43:07.628Z,88460.00
2023-04-19T02:44:07.703Z,88458.00
2023-04-19T02:45:07.833Z,88456.00
2023-04-19T02:46:07.906Z,88460.00
2023-04-19T02:47:07.986Z,88456.00
2023-04-19T02:48:08.052Z,88456.00
2023-04-19T02:49:08.092Z,88458.00
2023-04-19T02:50:08.128Z,88458.00
2023-04-19T02:51:08.165Z,88458.00
2023-04-19T02:52:08.192Z,88458.00
2023-04-19T02:53:08.237Z,88460.00
2023-04-19T02:54:08.294Z,88458.00
2023-04-19T02:55:08.307Z,88456.00
2023-04-19T02:56:08.319Z,88456.00
2023-04-19T02:57:08.382Z,88456.00
2023-04-19T02:58:08.420Z,88455.00
2023-04-19T02:59:08.472Z,88455.00
2023-04-19T03:00:08.514Z,88455.00
2023-04-19T03:01:08.545Z,88453.00
2023-04-19T03:02:08.633Z,88451.00
2023-04-19T03:03:08.697Z,88451.00
2023-04-19T03:04:08.661Z,88449.00
2023-04-19T03:05:08.651Z,88449.00
2023-04-19T03:06:08.699Z,88449.00
2023-04-19T03:07:08.745Z,88449.00
2023-04-19T03:08:08.735Z,88449.00
2023-04-19T03:09:08.776Z,88451.00
2023-04-19T03:10:08.812Z,88451.00
2023-04-19T03:11:08.845Z,88453.00
2023-04-19T03:12:08.886Z,88449.00
2023-04-19T03:13:08.917Z,88449.00
2023-04-19T03:14:08.987Z,88451.00
2023-04-19T03:15:08.981Z,88447.00
2023-04-19T03:16:09.029Z,88447.00
2023-04-19T03:17:09.018Z,88449.00
2023-04-19T03:18:09.058Z,88445.00
2023-04-19T03:19:09.124Z,88445.00
2023-04-19T03:20:09.058Z,88445.00
2023-04-19T03:21:09.095Z,88445.00
2023-04-19T03:22:09.093Z,88447.00
2023-04-19T03:23:09.100Z,88445.00
2023-04-19T03:24:09.148Z,88445.00
2023-04-19T03:25:09.132Z,88441.00
2023-04-19T03:26:09.131Z,88441.00
2023-04-19T03:27:09.167Z,88441.00
2023-04-19T03:28:09.166Z,88441.00
2023-04-19T03:29:09.204Z,88439.00
2023-04-19T03:30:09.208Z,88439.00
2023-04-19T03:31:09.222Z,88441.00
2023-04-19T03:32:09.233Z,88437.00
2023-04-19T03:33:09.371Z,88437.00
2023-04-19T03:34:09.244Z,88433.00
2023-04-19T03:35:09.275Z,88433.00
2023-04-19T03:36:09.285Z,88433.00
2023-04-19T03:37:09.292Z,88429.00
2023-04-19T03:38:09.316Z,88425.00
2023-04-19T03:39:09.343Z,88427.00
2023-04-19T03:40:09.321Z,88425.00
2023-04-19T03:41:09.354Z,88423.00
2023-04-19T03:42:09.361Z,88421.00
2023-04-19T03:43:09.380Z,88421.00
2023-04-19T03:44:09.395Z,88421.00
2023-04-19T03:45:09.404Z,88419.00
2023-04-19T03:46:09.414Z,88415.00
2023-04-19T03:47:09.416Z,88419.00
2023-04-19T03:48:09.506Z,88417.00
2023-04-19T03:49:09.436Z,88417.00
2023-04-19T03:50:09.454Z,88411.00
2023-04-19T03:51:09.480Z,88415.00
2023-04-19T03:52:09.509Z,88411.00
2023-04-19T03:53:09.475Z,88413.00
2023-04-19T03:54:09.520Z,88417.00
2023-04-19T03:55:09.519Z,88417.00
2023-04-19T03:56:09.524Z,88417.00
2023-04-19T03:57:09.526Z,88417.00
2023-04-19T03:58:09.563Z,88417.00
2023-04-19T03:59:09.605Z,88419.00
2023-04-19T04:00:09.583Z,88417.00
2023-04-19T04:01:09.590Z,88423.00
2023-04-19T04:02:09.679Z,88421.00
2023-04-19T04:03:09.865Z,88423.00
2023-04-19T04:04:09.820Z,88421.00
2023-04-19T04:05:09.823Z,88425.00
2023-04-19T04:06:09.664Z,88423.00
2023-04-19T04:07:09.672Z,88425.00
2023-04-19T04:08:09.670Z,88421.00
2023-04-19T04:09:09.705Z,88423.00
2023-04-19T04:10:09.717Z,88423.00
2023-04-19T04:11:09.732Z,88423.00
2023-04-19T04:12:09.749Z,88423.00
2023-04-19T04:13:09.780Z,88423.00
2023-04-19T04:14:09.778Z,88423.00
2023-04-19T04:15:09.793Z,88423.00
2023-04-19T04:16:09.851Z,88421.00
2023-04-19T04:17:09.818Z,88423.00
2023-04-19T04:18:09.855Z,88423.00
2023-04-19T04:19:09.853Z,88425.00
2023-04-19T04:20:09.856Z,88425.00
2023-04-19T04:21:09.894Z,88425.00
2023-04-19T04:22:09.904Z,88425.00
2023-04-19T04:23:09.892Z,88425.00
2023-04-19T04:24:09.929Z,88425.00
2023-04-19T04:25:09.931Z,88425.00
2023-04-19T04:26:09.953Z,88423.00
2023-04-19T04:27:09.947Z,88427.00
2023-04-19T04:28:09.965Z,88425.00
2023-04-19T04:29:09.973Z,88427.00
2023-04-19T04:30:09.998Z,88427.00
2023-04-19T04:31:10.027Z,88421.00
2023-04-19T04:32:10.212Z,88423.00
2023-04-19T04:33:10.025Z,88423.00
2023-04-19T04:34:10.042Z,88425.00
2023-04-19T04:35:10.062Z,88425.00
2023-04-19T04:36:10.056Z,88423.00
2023-04-19T04:37:10.078Z,88421.00
2023-04-19T04:38:21.537Z,88419.00
2023-04-19T04:39:11.199Z,88423.00
2023-04-19T04:40:10.105Z,88419.00
2023-04-19T04:41:10.103Z,88421.00
2023-04-19T04:42:10.142Z,88421.00
2023-04-19T04:43:10.159Z,88419.00
2023-04-19T04:44:12.942Z,88419.00
2023-04-19T04:45:10.163Z,88421.00
2023-04-19T04:46:10.242Z,88421.00
2023-04-19T04:47:10.199Z,88417.00
2023-04-19T04:48:10.195Z,88419.00
2023-04-19T04:49:10.233Z,88419.00
2023-04-19T04:50:10.227Z,88415.00
2023-04-19T04:51:10.229Z,88417.00
2023-04-19T04:52:10.248Z,88413.00
2023-04-19T04:53:12.290Z,88413.00
2023-04-19T04:54:10.470Z,88409.00
2023-04-19T04:55:10.485Z,88411.00
2023-04-19T04:56:10.522Z,88411.00
2023-04-19T04:57:10.533Z,88411.00
2023-04-19T04:58:10.555Z,88411.00
2023-04-19T04:59:10.578Z,88411.00
2023-04-19T05:00:10.602Z,88413.00
2023-04-19T05:01:10.660Z,88411.00
2023-04-19T05:02:10.723Z,88411.00
2023-04-19T05:03:10.721Z,88409.00
2023-04-19T05:04:10.758Z,88409.00
2023-04-19T05:05:10.720Z,88409.00
2023-04-19T05:06:10.718Z,88407.00
2023-04-19T05:07:10.750Z,88409.00
2023-04-19T05:08:10.776Z,88403.00
2023-04-19T05:09:10.785Z,88407.00
2023-04-19T05:10:10.824Z,88403.00
2023-04-19T05:11:10.836Z,88401.00
2023-04-19T05:12:10.852Z,88405.00
2023-04-19T05:13:10.924Z,88405.00
2023-04-19T05:14:10.890Z,88407.00
2023-04-19T05:15:10.909Z,88407.00
2023-04-19T05:16:10.975Z,88407.00
2023-04-19T05:17:10.949Z,88405.00
2023-04-19T05:18:10.979Z,88403.00
2023-04-19T05:19:10.981Z,88400.00
2023-04-19T05:20:10.999Z,88401.00
2023-04-19T05:21:11.004Z,88401.00
2023-04-19T05:22:11.028Z,88403.00
2023-04-19T05:23:11.062Z,88400.00
2023-04-19T05:24:11.078Z,88398.00
2023-04-19T05:25:11.099Z,88398.00
2023-04-19T05:26:11.146Z,88396.00
2023-04-19T05:27:11.125Z,88396.00
2023-04-19T05:28:11.154Z,88396.00
2023-04-19T05:29:11.172Z,88394.00
2023-04-19T05:30:11.205Z,88392.00
2023-04-19T05:31:11.242Z,88392.00
2023-04-19T05:32:11.229Z,88392.00
2023-04-19T05:33:11.313Z,88392.00
2023-04-19T05:34:11.295Z,88392.00
2023-04-19T05:35:11.287Z,88390.00
2023-04-19T05:36:11.332Z,88390.00
2023-04-19T05:37:11.334Z,88390.00
2023-04-19T05:38:11.339Z,88388.00
2023-04-19T05:39:12.318Z,88392.00
2023-04-19T05:40:11.386Z,88390.00
2023-04-19T05:41:11.394Z,88390.00
2023-04-19T05:42:11.626Z,88390.00
2023-04-19T05:43:14.317Z,88390.00
2023-04-19T05:44:11.461Z,88388.00
2023-04-19T05:45:11.473Z,88388.00
2023-04-19T05:46:11.625Z,88388.00
2023-04-19T05:47:11.546Z,88390.00
2023-04-19T05:48:11.825Z,88390.00
2023-04-19T05:49:11.565Z,88390.00
2023-04-19T05:50:11.613Z,88388.00
2023-04-19T05:51:12.356Z,88388.00
2023-04-19T05:52:11.632Z,88388.00
2023-04-19T05:53:11.678Z,88388.00
2023-04-19T05:54:11.680Z,88388.00
2023-04-19T05:55:11.730Z,88390.00
2023-04-19T05:56:11.757Z,88388.00
2023-04-19T05:57:11.799Z,88386.00
2023-04-19T05:58:11.759Z,88388.00
2023-04-19T05:59:11.830Z,88386.00
2023-04-19T06:00:11.827Z,88384.00
2023-04-19T06:01:11.875Z,88384.00
2023-04-19T06:02:11.958Z,88386.00
2023-04-19T06:03:12.024Z,88384.00
2023-04-19T06:04:12.018Z,88384.00
2023-04-19T06:05:12.090Z,88384.00
2023-04-19T06:06:11.990Z,88386.00
2023-04-19T06:07:26.461Z,88384.00
2023-04-19T06:08:12.978Z,88384.00
2023-04-19T06:09:12.057Z,88382.00
2023-04-19T06:10:12.039Z,88384.00
2023-04-19T06:11:23.386Z,88382.00
2023-04-19T06:12:13.062Z,88382.00
2023-04-19T06:13:12.110Z,88384.00
2023-04-19T06:14:12.109Z,88384.00
2023-04-19T06:15:12.147Z,88386.00
2023-04-19T06:16:12.150Z,88384.00
2023-04-19T06:17:12.220Z,88386.00
2023-04-19T06:18:19.537Z,88384.00
2023-04-19T06:19:13.210Z,88384.00
2023-04-19T06:20:12.235Z,88384.00
2023-04-19T06:21:12.243Z,88386.00
2023-04-19T06:22:12.470Z,88384.00
2023-04-19T06:23:12.279Z,88384.00
2023-04-19T06:24:12.346Z,88384.00
2023-04-19T06:25:13.357Z,88384.00
2023-04-19T06:26:12.403Z,88386.00
2023-04-19T06:27:12.369Z,88386.00
2023-04-19T06:28:12.407Z,88384.00
2023-04-19T06:29:12.434Z,88388.00
2023-04-19T06:30:13.912Z,88386.00
2023-04-19T06:31:12.539Z,88386.00
2023-04-19T06:32:12.480Z,88388.00
2023-04-19T06:33:12.506Z,88388.00
2023-04-19T06:34:12.526Z,88386.00
2023-04-19T06:35:12.560Z,88386.00
2023-04-19T06:36:12.568Z,88384.00
2023-04-19T06:37:12.620Z,88386.00
2023-04-19T06:38:12.667Z,88388.00
2023-04-19T06:39:12.692Z,88384.00
2023-04-19T06:40:12.752Z,88388.00
2023-04-19T06:41:12.833Z,88386.00
2023-04-19T06:42:12.885Z,88384.00
2023-04-19T06:43:12.909Z,88384.00
2023-04-19T06:44:13.026Z,88384.00
2023-04-19T06:45:13.019Z,88384.00
2023-04-19T06:46:13.119Z,88386.00
2023-04-19T06:47:13.205Z,88386.00
2023-04-19T06:48:13.261Z,88386.00
2023-04-19T06:49:13.231Z,88384.00
2023-04-19T06:50:13.302Z,88386.00
2023-04-19T06:51:13.377Z,88386.00
2023-04-19T06:52:13.399Z,88386.00
2023-04-19T06:53:13.430Z,88384.00
2023-04-19T06:54:13.487Z,88386.00
2023-04-19T06:55:13.549Z,88386.00
2023-04-19T06:56:13.590Z,88388.00
2023-04-19T06:57:13.652Z,88384.00
2023-04-19T06:58:13.703Z,88378.00
2023-04-19T06:59:13.793Z,88384.00
2023-04-19T07:00:13.890Z,88384.00
2023-04-19T07:01:13.872Z,88380.00
2023-04-19T07:02:13.975Z,88378.00
2023-04-19T07:03:14.136Z,88384.00
2023-04-19T07:04:14.180Z,88384.00
2023-04-19T07:05:14.003Z,88386.00
2023-04-19T07:06:13.996Z,88384.00
2023-04-19T07:07:14.002Z,88384.00
2023-04-19T07:08:14.076Z,88384.00
2023-04-19T07:09:14.076Z,88384.00
2023-04-19T07:10:14.089Z,88382.00
2023-04-19T07:11:14.093Z,88380.00
2023-04-19T07:12:14.121Z,88376.00
2023-04-19T07:13:14.255Z,88378.00
2023-04-19T07:14:15.200Z,88380.00
2023-04-19T07:15:14.211Z,88378.00
2023-04-19T07:16:14.249Z,88378.00
2023-04-19T07:17:14.225Z,88376.00
2023-04-19T07:18:14.254Z,88376.00
2023-04-19T07:19:14.387Z,88372.00
2023-04-19T07:20:14.311Z,88376.00
2023-04-19T07:21:14.339Z,88374.00
2023-04-19T07:22:15.200Z,88374.00
2023-04-19T07:23:14.397Z,88372.00
2023-04-19T07:24:14.676Z,88374.00
2023-04-19T07:25:15.045Z,88372.00
2023-04-19T07:26:14.483Z,88374.00
2023-04-19T07:27:14.873Z,88370.00
2023-04-19T07:28:14.501Z,88372.00
2023-04-19T07:29:14.553Z,88374.00
2023-04-19T07:30:14.574Z,88372.00
2023-04-19T07:31:14.571Z,88372.00
2023-04-19T07:32:14.617Z,88372.00
2023-04-19T07:33:14.720Z,88372.00
2023-04-19T07:34:14.912Z,88372.00
2023-04-19T07:35:14.720Z,88370.00
2023-04-19T07:36:14.683Z,88370.00
2023-04-19T07:37:14.698Z,88372.00
2023-04-19T07:38:14.723Z,88370.00
2023-04-19T07:39:14.737Z,88370.00
2023-04-19T07:40:14.799Z,88370.00
2023-04-19T07:41:14.816Z,88368.00
2023-04-19T07:42:14.869Z,88366.00
2023-04-19T07:43:14.836Z,88370.00
2023-04-19T07:44:15.235Z,88368.00
2023-04-19T07:45:14.885Z,88366.00
2023-04-19T07:46:14.999Z,88368.00
2023-04-19T07:47:14.987Z,88366.00
2023-04-19T07:48:14.971Z,88364.00
2023-04-19T07:49:15.017Z,88368.00
2023-04-19T07:50:15.047Z,88366.00
2023-04-19T07:51:15.014Z,88366.00
2023-04-19T07:52:15.027Z,88364.00
2023-04-19T07:53:15.053Z,88362.00
2023-04-19T07:54:15.333Z,88364.00
2023-04-19T07:55:15.062Z,88358.00
2023-04-19T07:56:15.099Z,88358.00
2023-04-19T07:57:15.116Z,88358.00
2023-04-19T07:58:15.200Z,88360.00
2023-04-19T07:59:15.205Z,88358.00
2023-04-19T08:00:15.220Z,88358.00
2023-04-19T08:01:15.188Z,88362.00
2023-04-19T08:02:15.296Z,88358.00
2023-04-19T08:03:15.408Z,88358.00
2023-04-19T08:04:15.619Z,88358.00
2023-04-19T08:05:15.363Z,88358.00
2023-04-19T08:06:15.851Z,88362.00
2023-04-19T08:07:15.491Z,88356.00
2023-04-19T08:08:15.323Z,88356.00
2023-04-19T08:09:15.323Z,88358.00
2023-04-19T08:10:15.371Z,88360.00
2023-04-19T08:11:15.334Z,88358.00
2023-04-19T08:12:30.440Z,88356.00
2023-04-19T08:13:16.425Z,88354.00
2023-04-19T08:14:28.309Z,88354.00
2023-04-19T08:16:48.191Z,88354.00
2023-04-19T08:18:15.506Z,88353.00
2023-04-19T08:19:15.481Z,88351.00
2023-04-19T08:20:15.551Z,88353.00
2023-04-19T08:21:15.522Z,88351.00
2023-04-19T08:22:15.550Z,88349.00
2023-04-19T08:23:23.961Z,88351.00
2023-04-19T08:24:16.724Z,88349.00
2023-04-19T08:25:15.604Z,88349.00
2023-04-19T08:26:15.621Z,88347.00
2023-04-19T08:27:15.787Z,88351.00
2023-04-19T08:28:15.661Z,88351.00
2023-04-19T08:29:15.928Z,88349.00
2023-04-19T08:30:15.702Z,88349.00
2023-04-19T08:31:15.713Z,88351.00
2023-04-19T08:32:15.798Z,88349.00
2023-04-19T08:33:16.064Z,88349.00
2023-04-19T08:34:15.756Z,88351.00
2023-04-19T08:35:15.893Z,88345.00
2023-04-19T08:36:19.443Z,88347.00
2023-04-19T08:37:16.789Z,88347.00
2023-04-19T08:38:15.798Z,88349.00
2023-04-19T08:39:28.972Z,88347.00
2023-04-19T08:40:16.863Z,88347.00
2023-04-19T08:41:15.838Z,88343.00
2023-04-19T08:43:15.873Z,88345.00
2023-04-19T08:44:17.802Z,88341.00
2023-04-19T08:45:27.939Z,88341.00
2023-04-19T08:46:17.078Z,88341.00
2023-04-19T08:47:26.988Z,88339.00
2023-04-19T08:48:17.123Z,88341.00
2023-04-19T08:49:16.076Z,88335.00
2023-04-19T08:50:31.122Z,88335.00
2023-04-19T08:51:17.032Z,88335.00
2023-04-19T08:52:16.053Z,88337.00
2023-04-19T08:53:24.634Z,88337.00
2023-04-19T08:54:20.016Z,88333.00
2023-04-19T08:55:16.065Z,88331.00
2023-04-19T08:56:24.375Z,88329.00
2023-04-19T08:57:17.586Z,88325.00
2023-04-19T08:58:28.630Z,88329.00
2023-04-19T08:59:18.810Z,88325.00
2023-04-19T09:00:16.254Z,88325.00
2023-04-19T09:01:30.386Z,88323.00
2023-04-19T09:02:17.519Z,88323.00
2023-04-19T09:03:16.507Z,88321.00
2023-04-19T09:05:16.648Z,88321.00
2023-04-19T09:06:16.798Z,88325.00
2023-04-19T09:07:17.471Z,88317.00
2023-04-19T09:08:16.768Z,88317.00
2023-04-19T09:09:33.114Z,88317.00
2023-04-19T09:10:17.988Z,88317.00
2023-04-19T09:11:17.046Z,88315.00
2023-04-19T09:12:17.163Z,88311.00
2023-04-19T09:13:17.571Z,88315.00
2023-04-19T09:14:17.625Z,88313.00
2023-04-19T09:15:17.450Z,88313.00
2023-04-19T09:16:17.868Z,88311.00
2023-04-19T09:17:17.772Z,88309.00
2023-04-19T09:18:17.901Z,88309.00
2023-04-19T09:19:24.290Z,88309.00
2023-04-19T09:20:18.978Z,88311.00
2023-04-19T09:21:18.040Z,88311.00
2023-04-19T09:22:18.244Z,88307.00
2023-04-19T09:23:18.131Z,88311.00
2023-04-19T09:24:18.173Z,88307.00
2023-04-19T09:25:41.439Z,88305.00
2023-04-19T09:26:23.342Z,88301.00
2023-04-19T09:27:20.884Z,88301.00
2023-04-19T09:28:18.524Z,88303.00
2023-04-19T09:29:18.867Z,88298.00
2023-04-19T09:30:30.078Z,88299.00
2023-04-19T09:31:38.963Z,88298.00
2023-04-19T09:32:19.703Z,88296.00
2023-04-19T09:33:19.032Z,88294.00
2023-04-19T09:34:18.775Z,88296.00
2023-04-19T09:35:18.773Z,88296.00
2023-04-19T09:36:18.868Z,88294.00
2023-04-19T09:37:33.036Z,88288.00
2023-04-19T09:38:19.912Z,88288.00
2023-04-19T09:39:18.957Z,88286.00
2023-04-19T09:43:07.349Z,88282.00
2023-04-19T09:44:15.574Z,88278.00
2023-04-19T09:45:57.315Z,88278.00
2023-04-19T09:46:57.372Z,88278.00
2023-04-19T09:47:57.363Z,88280.00
2023-04-19T09:48:57.632Z,88280.00
2023-04-19T09:49:57.214Z,88276.00
2023-04-19T09:51:01.929Z,88276.00
2023-04-19T09:51:58.185Z,88278.00
2023-04-19T09:52:57.184Z,88276.00
2023-04-19T09:53:57.141Z,88274.00
2023-04-19T09:54:57.105Z,88272.00
2023-04-19T09:56:02.185Z,88272.00
2023-04-19T09:57:00.113Z,88266.00
2023-04-19T09:57:57.085Z,88264.00
2023-04-19T09:59:20.041Z,88268.00
2023-04-19T09:59:58.141Z,88268.00
2023-04-19T10:01:57.278Z,88260.00
2023-04-19T10:02:57.495Z,88262.00
2023-04-19T10:03:59.218Z,88258.00
2023-04-19T10:05:57.587Z,88256.00
2023-04-19T10:07:19.424Z,88256.00
2023-04-19T10:08:00.114Z,88256.00
2023-04-19T10:08:57.100Z,88254.00
2023-04-19T10:10:02.239Z,88254.00
2023-04-19T10:10:59.155Z,88256.00
2023-04-19T10:12:03.801Z,88254.00
2023-04-19T10:13:11.543Z,88254.00
2023-04-19T10:13:58.583Z,88252.00
2023-04-19T10:14:56.950Z,88252.00
2023-04-19T10:16:04.555Z,88250.00
2023-04-19T10:17:01.134Z,88248.00
2023-04-19T10:17:56.836Z,88250.00
2023-04-19T10:18:56.779Z,88248.00
2023-04-19T10:19:56.674Z,88246.00
2023-04-19T10:20:56.639Z,88244.00
2023-04-19T10:21:58.574Z,88246.00
2023-04-19T10:22:56.594Z,88246.00
2023-04-19T10:23:56.556Z,88248.00
2023-04-19T10:24:56.541Z,88248.00
2023-04-19T10:25:56.482Z,88246.00
2023-04-19T10:26:59.029Z,88244.00
2023-04-19T10:27:56.643Z,88244.00
2023-04-19T10:28:56.689Z,88243.00
2023-04-19T10:29:57.658Z,88243.00
2023-04-19T10:30:56.721Z,88241.00
2023-04-19T10:31:56.803Z,88241.00
2023-04-19T10:32:56.886Z,88239.00
2023-04-19T10:33:56.739Z,88241.00
2023-04-19T10:34:56.744Z,88239.00
2023-04-19T10:35:56.799Z,88241.00
2023-04-19T10:36:56.790Z,88241.00
2023-04-19T10:37:57.652Z,88239.00
2023-04-19T10:38:56.777Z,88233.00
2023-04-19T10:39:56.790Z,88237.00
2023-04-19T10:40:56.814Z,88231.00
2023-04-19T10:41:57.084Z,88233.00
2023-04-19T10:42:56.850Z,88233.00
2023-04-19T10:43:56.818Z,88229.00
2023-04-19T10:44:56.805Z,88229.00
2023-04-19T10:45:56.867Z,88225.00
2023-04-19T10:46:56.821Z,88225.00
2023-04-19T10:47:56.857Z,88223.00
2023-04-19T10:48:56.840Z,88214.00
2023-04-19T10:49:56.848Z,88221.00
2023-04-19T10:50:56.820Z,88212.00
2023-04-19T10:52:11.189Z,88212.00
2023-04-19T10:52:56.755Z,88214.00
2023-04-19T10:53:56.828Z,88208.00
2023-04-19T10:54:56.733Z,88208.00
2023-04-19T10:55:56.709Z,88204.00
2023-04-19T10:56:56.665Z,88204.00
2023-04-19T10:57:56.642Z,88200.00
2023-04-19T10:58:56.532Z,88202.00
2023-04-19T10:59:56.501Z,88204.00
2023-04-19T11:00:56.496Z,88200.00
2023-04-19T11:01:56.736Z,88202.00
2023-04-19T11:02:56.518Z,88198.00
2023-04-19T11:03:56.476Z,88200.00
2023-04-19T11:04:56.313Z,88198.00
2023-04-19T11:05:56.305Z,88196.00
2023-04-19T11:06:56.247Z,88194.00
2023-04-19T11:07:56.162Z,88192.00
2023-04-19T11:08:56.104Z,88196.00
2023-04-19T11:09:56.089Z,88194.00
2023-04-19T11:10:56.068Z,88192.00
2023-04-19T11:11:55.974Z,88192.00
2023-04-19T11:12:56.003Z,88190.00
2023-04-19T11:13:55.906Z,88190.00
2023-04-19T11:14:55.891Z,88188.00
2023-04-19T11:15:55.880Z,88190.00
2023-04-19T11:16:55.991Z,88188.00
2023-04-19T11:18:11.277Z,88190.00
2023-04-19T11:18:56.669Z,88188.00
2023-04-19T11:19:55.656Z,88188.00
2023-04-19T11:20:55.575Z,88188.00
2023-04-19T11:21:55.557Z,88188.00
2023-04-19T11:22:55.588Z,88184.00
2023-04-19T11:23:55.472Z,88184.00
2023-04-19T11:24:55.376Z,88183.00
2023-04-19T11:25:55.320Z,88184.00
2023-04-19T11:26:55.650Z,88183.00
2023-04-19T11:27:55.197Z,88181.00
2023-04-19T11:28:55.158Z,88181.00
2023-04-19T11:29:55.185Z,88181.00
2023-04-19T11:30:55.166Z,88177.00
2023-04-19T11:31:55.228Z,88175.00
2023-04-19T11:32:55.153Z,88173.00
2023-04-19T11:33:55.267Z,88177.00
2023-04-19T11:34:55.164Z,88173.00
2023-04-19T11:35:55.098Z,88173.00
2023-04-19T11:36:55.129Z,88169.00
2023-04-19T11:37:55.104Z,88169.00
2023-04-19T11:38:55.160Z,88167.00
2023-04-19T11:39:55.059Z,88169.00
2023-04-19T11:40:54.957Z,88171.00
2023-04-19T11:41:54.937Z,88169.00
2023-04-19T11:42:54.883Z,88167.00
2023-04-19T11:43:54.805Z,88171.00
2023-04-19T11:44:54.814Z,88169.00
2023-04-19T11:45:54.735Z,88161.00
2023-04-19T11:46:55.176Z,88159.00
2023-04-19T11:47:54.623Z,88155.00
2023-04-19T11:48:54.531Z,88157.00
2023-04-19T11:49:54.533Z,88155.00
2023-04-19T11:50:54.560Z,88151.00
2023-04-19T11:51:54.606Z,88155.00
2023-04-19T11:52:54.566Z,88151.00
2023-04-19T11:53:54.581Z,88149.00
2023-04-19T11:54:54.519Z,88147.00